Lake Minchumina, Alaska
Current Conditions -  °F | °C
As of 10:56 PM on Friday 24 Oct 2014 (Local Time) from PAFS Reporting Station
Clear Clear  
Wind Chill: 23°   Ceiling: Unl
Heat Index: 23°   Visibility: 10mi
Dew Point: 20°   Wind: 3mph
Humidity: 89%   Direction: 170°S
Pressure: 29.99"   Gusts: NA
Location:  63.89°N, 152.36°W
Report Text: PAFS 250656Z AUTO 17003KT 10SM CLR M05/M07 A2999 RMK AO2 TSNO T10501066 SLP170 $
Loading
Personal Weather Stations






























Interactive Weather Map
Tropical Storm Tracking
New forecast layout! Learn more

10-Day Weather Forecast

Advertisements
Track Severe Weather on mobile